createdAt,value
2018-03-26T00:01:25.073Z,25.48
2018-03-26T00:03:52.632Z,25.47
2018-03-26T00:06:20.188Z,22.75
2018-03-26T00:08:47.740Z,25.03
2018-03-26T00:11:16.760Z,24.80
2018-03-26T00:13:44.911Z,23.10
2018-03-26T00:16:12.452Z,24.73
2018-03-26T00:18:40.796Z,24.43
2018-03-26T00:21:08.335Z,22.33
2018-03-26T00:23:35.868Z,22.90
2018-03-26T00:26:03.435Z,22.27
2018-03-26T00:28:30.987Z,23.00
2018-03-26T00:30:59.294Z,22.27
2018-03-26T00:33:27.392Z,24.30
2018-03-26T00:35:54.932Z,24.23
2018-03-26T00:38:22.471Z,22.95
2018-03-26T00:40:50.037Z,23.10
2018-03-26T00:43:17.584Z,24.90
2018-03-26T00:45:45.120Z,24.10
2018-03-26T00:48:14.376Z,23.87
2018-03-26T00:50:41.917Z,23.23
2018-03-26T00:53:09.467Z,24.30
2018-03-26T00:55:37.578Z,24.20
2018-03-26T00:58:05.121Z,24.20
2018-03-26T01:00:32.656Z,22.90
2018-03-26T01:03:00.888Z,23.97
2018-03-26T01:05:28.436Z,24.17
2018-03-26T01:07:55.992Z,24.03
2018-03-26T01:10:23.574Z,22.80
2018-03-26T01:12:51.112Z,22.87
2018-03-26T01:15:19.022Z,23.52
2018-03-26T01:17:47.162Z,24.80
2018-03-26T01:20:15.507Z,25.57
2018-03-26T01:22:43.050Z,25.07
2018-03-26T01:25:10.618Z,25.98
2018-03-26T01:27:38.150Z,22.30
2018-03-26T01:30:05.692Z,23.00
2018-03-26T01:32:33.257Z,25.42
2018-03-26T01:35:00.792Z,24.40
2018-03-26T01:37:28.326Z,24.30
2018-03-26T01:39:56.420Z,24.03
2018-03-26T01:42:23.968Z,25.15
2018-03-26T01:44:51.504Z,24.65
2018-03-26T01:47:19.100Z,24.30
2018-03-26T01:49:46.647Z,25.07
2018-03-26T01:52:16.356Z,24.70
2018-03-26T01:54:43.929Z,24.67
2018-03-26T01:57:11.485Z,24.07
2018-03-26T01:59:39.023Z,27.27
2018-03-26T02:02:06.824Z,26.40
2018-03-26T02:04:34.360Z,24.10
2018-03-26T02:07:01.892Z,26.00
2018-03-26T02:09:29.461Z,25.30
2018-03-26T02:11:57.000Z,25.83
2018-03-26T02:14:24.535Z,26.10
2018-03-26T02:16:52.247Z,26.60
2018-03-26T02:19:19.809Z,24.48
2018-03-26T02:21:47.344Z,25.10
2018-03-26T02:24:15.943Z,26.50
2018-03-26T02:26:43.552Z,26.90
2018-03-26T02:29:11.057Z,28.77
2018-03-26T02:31:38.633Z,27.70
2018-03-26T02:34:06.168Z,25.20
2018-03-26T02:36:33.700Z,26.20
2018-03-26T02:39:01.280Z,27.93
2018-03-26T02:41:29.587Z,27.17
2018-03-26T02:43:57.129Z,27.23
2018-03-26T02:46:25.483Z,26.90
2018-03-26T02:48:53.020Z,24.93
2018-03-26T02:51:20.568Z,24.94
2018-03-26T02:53:48.143Z,26.37
2018-03-26T02:56:16.444Z,26.70
2018-03-26T02:58:44.003Z,24.90
2018-03-26T03:01:12.348Z,24.23
2018-03-26T03:03:39.892Z,24.73
2018-03-26T03:06:07.430Z,25.97
2018-03-26T03:08:35.228Z,24.80
2018-03-26T03:11:02.768Z,25.20
2018-03-26T03:13:30.307Z,25.30
2018-03-26T03:15:57.884Z,25.33
2018-03-26T03:18:25.868Z,24.20
2018-03-26T03:20:53.400Z,24.57
2018-03-26T03:23:20.969Z,23.73
2018-03-26T03:25:48.512Z,25.12
2018-03-26T03:28:16.451Z,21.87
2018-03-26T03:30:44.615Z,22.30
2018-03-26T03:33:12.164Z,24.03
2018-03-26T03:35:39.706Z,22.87
2018-03-26T03:38:07.280Z,25.60
2018-03-26T03:40:34.822Z,22.83
2018-03-26T03:43:02.356Z,23.10
2018-03-26T03:45:29.941Z,23.50
2018-03-26T03:47:58.243Z,23.65
2018-03-26T03:50:25.771Z,26.07
2018-03-26T03:52:53.876Z,27.20
2018-03-26T03:55:21.416Z,27.02
2018-03-26T03:57:49.177Z,27.60
2018-03-26T04:00:16.738Z,61.05
2018-03-26T04:02:44.276Z,29.70
2018-03-26T04:05:11.826Z,25.30
2018-03-26T04:07:39.405Z,26.23
2018-03-26T04:10:06.944Z,26.77
2018-03-26T04:12:34.496Z,26.45
2018-03-26T04:15:03.451Z,27.00
2018-03-26T04:17:31.167Z,25.17
2018-03-26T04:19:59.161Z,26.37
2018-03-26T04:22:26.739Z,25.90
2018-03-26T04:24:54.271Z,28.30
2018-03-26T04:27:21.817Z,26.60
2018-03-26T04:29:49.506Z,27.37
2018-03-26T04:32:17.043Z,27.03
2018-03-26T04:34:44.588Z,26.27
2018-03-26T04:37:14.162Z,26.90
2018-03-26T04:39:41.708Z,27.00
2018-03-26T04:42:09.248Z,27.77
2018-03-26T04:44:36.812Z,27.90
2018-03-26T04:47:04.351Z,27.07
2018-03-26T04:49:31.891Z,30.70
2018-03-26T04:52:00.241Z,30.40
2018-03-26T04:54:27.771Z,30.70
2018-03-26T04:56:55.308Z,32.07
2018-03-26T04:59:23.220Z,31.43
2018-03-26T05:01:50.772Z,32.13
2018-03-26T05:04:18.355Z,31.83
2018-03-26T05:06:45.940Z,34.90
2018-03-26T05:09:15.404Z,37.38
2018-03-26T05:11:42.939Z,34.20
2018-03-26T05:14:11.285Z,34.85
2018-03-26T05:16:38.823Z,36.67
2018-03-26T05:21:59.443Z,34.47
2018-03-26T05:24:26.980Z,33.13
2018-03-26T05:26:54.520Z,31.60
2018-03-26T05:29:22.864Z,32.13
2018-03-26T05:31:50.399Z,31.55
2018-03-26T05:34:17.944Z,31.10
2018-03-26T05:36:45.532Z,32.28
2018-03-26T05:39:24.397Z,34.70
2018-03-26T05:52:02.549Z,30.90
2018-03-26T05:54:30.135Z,37.40
2018-03-26T05:56:57.860Z,36.47
2018-03-26T05:59:25.431Z,35.25
2018-03-26T06:01:53.023Z,34.53
2018-03-26T06:04:21.360Z,33.80
2018-03-26T06:06:49.014Z,35.77
2018-03-26T06:09:16.576Z,34.30
2018-03-26T06:11:44.192Z,33.00
2018-03-26T06:14:12.246Z,34.33
2018-03-26T06:16:51.597Z,34.20
2018-03-26T06:19:19.162Z,33.70
2018-03-26T06:21:46.708Z,33.57
2018-03-26T06:24:16.655Z,34.55
2018-03-26T06:26:44.222Z,34.43
2018-03-26T06:29:11.780Z,35.63
2018-03-26T06:31:39.316Z,34.80
2018-03-26T06:34:07.516Z,34.80
2018-03-26T06:36:40.716Z,36.53
2018-03-26T06:39:27.976Z,39.07
2018-03-26T06:41:56.426Z,41.33
2018-03-26T06:44:23.968Z,38.45
2018-03-26T06:46:51.599Z,39.60
2018-03-26T06:49:19.171Z,38.10
2018-03-26T06:51:46.885Z,39.90
2018-03-26T06:54:26.538Z,39.80
2018-03-26T07:01:49.492Z,39.70
2018-03-26T07:04:17.108Z,37.03
2018-03-26T07:06:44.713Z,37.07
2018-03-26T07:09:14.170Z,40.57
2018-03-26T07:11:42.597Z,39.00
2018-03-26T07:14:10.924Z,40.37
2018-03-26T07:16:38.834Z,38.55
2018-03-26T07:19:06.376Z,41.00
2018-03-26T07:21:33.916Z,40.90
2018-03-26T07:24:02.270Z,40.27
2018-03-26T07:26:31.000Z,37.43
2018-03-26T07:28:58.783Z,41.20
2018-03-26T07:31:26.376Z,38.78
2018-03-26T07:33:53.926Z,40.87
2018-03-26T07:36:21.475Z,40.53
2018-03-26T07:38:53.836Z,39.60
2018-03-26T07:41:23.908Z,42.48
2018-03-26T07:43:51.480Z,42.05
2018-03-26T07:46:25.592Z,41.03
2018-03-26T07:51:33.056Z,38.92
2018-03-26T07:54:00.622Z,37.93
2018-03-26T07:56:28.172Z,38.10
2018-03-26T07:58:56.576Z,39.58
2018-03-26T08:01:24.117Z,41.03
2018-03-26T08:03:51.665Z,36.03
2018-03-26T08:06:19.260Z,39.20
2018-03-26T08:08:46.805Z,35.80
2018-03-26T08:11:26.760Z,36.88
2018-03-26T08:13:54.327Z,40.07
2018-03-26T08:16:21.889Z,39.55
2018-03-26T08:18:50.376Z,39.03
2018-03-26T08:21:17.920Z,37.63
2018-03-26T08:23:45.461Z,37.97
2018-03-26T08:26:27.239Z,40.60
2018-03-26T08:32:37.273Z,43.03
2018-03-26T08:35:07.060Z,41.00
2018-03-26T08:37:35.607Z,41.33
2018-03-26T08:40:04.024Z,40.67
2018-03-26T08:42:31.632Z,40.27
2018-03-26T08:44:59.135Z,41.40
2018-03-26T08:47:26.809Z,42.10
2018-03-26T08:49:54.429Z,39.33
2018-03-26T08:52:21.912Z,40.88
2018-03-26T08:54:49.479Z,39.30
2018-03-26T08:57:17.048Z,39.70
2018-03-26T08:59:44.661Z,41.67
2018-03-26T09:02:12.767Z,40.87
2018-03-26T09:04:40.305Z,39.80
2018-03-26T09:07:07.851Z,39.00
2018-03-26T09:09:35.425Z,39.20
2018-03-26T09:12:03.070Z,38.37
2018-03-26T09:14:30.596Z,39.90
2018-03-26T09:16:59.349Z,39.60
2018-03-26T09:19:26.892Z,36.60
2018-03-26T09:21:54.433Z,37.40
2018-03-26T09:24:22.061Z,41.60
2018-03-26T09:26:49.624Z,38.37
2018-03-26T09:29:17.165Z,38.60
2018-03-26T09:31:44.728Z,38.57
2018-03-26T09:34:12.569Z,35.87
2018-03-26T09:36:40.112Z,36.60
2018-03-26T09:39:07.682Z,36.50
2018-03-26T09:41:35.232Z,35.23
2018-03-26T09:44:02.790Z,36.27
2018-03-26T09:46:30.926Z,36.95
2018-03-26T09:48:58.604Z,37.80
2018-03-26T09:51:26.914Z,36.13
2018-03-26T09:53:54.496Z,37.20
2018-03-26T09:56:22.041Z,38.38
2018-03-26T09:58:49.603Z,34.63
2018-03-26T10:01:17.997Z,36.00
2018-03-26T10:03:45.546Z,37.07
2018-03-26T10:06:24.521Z,37.25
2018-03-26T10:13:25.508Z,37.00
2018-03-26T10:15:53.058Z,37.27
2018-03-26T10:18:21.376Z,35.67
2018-03-26T10:20:48.975Z,35.20
2018-03-26T10:23:16.532Z,34.13
2018-03-26T10:25:44.077Z,38.00
2018-03-26T10:28:12.157Z,37.17
2018-03-26T10:30:39.703Z,35.50
2018-03-26T10:33:08.241Z,35.93
2018-03-26T10:35:36.246Z,35.17
2018-03-26T10:38:03.979Z,37.20
2018-03-26T10:40:31.526Z,37.05
2018-03-26T10:42:59.091Z,35.33
2018-03-26T10:45:27.398Z,35.83
2018-03-26T10:47:55.157Z,35.50
2018-03-26T10:50:23.802Z,35.60
2018-03-26T10:52:51.384Z,36.30
2018-03-26T10:55:19.691Z,36.43
2018-03-26T10:57:47.264Z,35.63
2018-03-26T11:00:16.636Z,34.42
2018-03-26T11:02:44.926Z,34.97
2018-03-26T11:05:12.492Z,33.72
2018-03-26T11:07:40.039Z,37.43
2018-03-26T11:10:08.115Z,36.47
2018-03-26T11:12:36.586Z,34.00
2018-03-26T11:15:04.132Z,32.67
2018-03-26T11:17:31.671Z,34.00
2018-03-26T11:19:59.263Z,32.10
2018-03-26T11:22:26.841Z,34.57
2018-03-26T11:24:55.233Z,35.77
2018-03-26T11:27:30.838Z,33.93
2018-03-26T11:29:59.156Z,33.27
2018-03-26T11:32:26.718Z,35.30
2018-03-26T11:34:56.753Z,34.80
2018-03-26T11:37:31.483Z,35.50
2018-03-26T11:39:59.114Z,35.95
2018-03-26T11:42:27.702Z,34.83
2018-03-26T11:44:55.264Z,32.93
2018-03-26T11:47:23.608Z,34.10
2018-03-26T11:49:52.662Z,33.80
2018-03-26T11:52:20.474Z,35.33
2018-03-26T11:54:48.573Z,35.70
2018-03-26T11:57:16.430Z,33.53
2018-03-26T11:59:43.977Z,34.13
2018-03-26T12:02:11.597Z,32.88
2018-03-26T12:04:39.179Z,34.60
2018-03-26T12:07:07.528Z,33.77
2018-03-26T12:09:35.137Z,36.03
2018-03-26T12:12:02.688Z,32.70
2018-03-26T12:14:31.004Z,34.00
2018-03-26T12:16:58.839Z,33.73
2018-03-26T12:19:26.432Z,35.10
2018-03-26T12:21:54.165Z,33.30
2018-03-26T12:24:33.722Z,34.50
2018-03-26T12:27:02.317Z,35.13
2018-03-26T12:29:41.811Z,35.70
2018-03-26T12:32:10.133Z,36.00
2018-03-26T12:34:50.023Z,34.80
2018-03-26T12:37:18.524Z,33.65
2018-03-26T12:39:47.397Z,34.23
2018-03-26T12:42:16.539Z,35.40
2018-03-26T12:44:55.765Z,36.57
2018-03-26T12:47:23.371Z,34.80
2018-03-26T12:49:50.935Z,35.80
2018-03-26T12:52:30.698Z,37.78
2018-03-26T12:54:58.559Z,37.10
2018-03-26T12:57:37.977Z,35.43
2018-03-26T13:00:06.079Z,34.03
2018-03-26T13:02:33.640Z,35.97
2018-03-26T13:05:01.221Z,36.97
2018-03-26T13:07:29.436Z,35.57
2018-03-26T13:09:56.972Z,36.70
2018-03-26T13:12:25.209Z,35.75
2018-03-26T13:14:52.789Z,36.60
2018-03-26T13:17:21.117Z,36.83
2018-03-26T13:19:48.682Z,38.23
2018-03-26T13:22:16.498Z,38.03
2018-03-26T13:24:44.806Z,37.35
2018-03-26T13:27:14.081Z,36.10
2018-03-26T13:29:41.628Z,39.10
2018-03-26T13:32:09.962Z,40.03
2018-03-26T13:34:38.118Z,37.80
2018-03-26T13:37:05.668Z,39.23
2018-03-26T13:39:33.336Z,37.45
2018-03-26T13:42:01.305Z,40.40
2018-03-26T13:44:28.851Z,39.30
2018-03-26T13:46:56.401Z,42.33
2018-03-26T13:49:23.968Z,39.33
2018-03-26T13:51:52.284Z,36.08
2018-03-26T13:54:19.840Z,36.33
2018-03-26T13:56:47.992Z,35.03
2018-03-26T13:59:16.528Z,34.65
2018-03-26T14:01:44.840Z,35.33
2018-03-26T14:04:12.412Z,35.43
2018-03-26T14:06:39.959Z,35.03
2018-03-26T14:09:19.321Z,33.92
2018-03-26T14:11:58.484Z,36.60
2018-03-26T14:14:38.324Z,35.07
2018-03-26T14:17:17.594Z,35.53
2018-03-26T14:19:45.185Z,34.40
2018-03-26T14:22:13.643Z,34.90
2018-03-26T14:24:42.368Z,37.27
2018-03-26T14:27:09.941Z,35.00
2018-03-26T14:29:37.496Z,33.90
2018-03-26T14:32:05.071Z,36.77
2018-03-26T14:34:33.236Z,37.03
2018-03-26T14:37:00.788Z,38.43
2018-03-26T14:39:28.781Z,38.80
2018-03-26T14:41:56.372Z,37.63
2018-03-26T14:44:23.936Z,38.60
2018-03-26T14:46:51.516Z,36.80
2018-03-26T14:49:19.109Z,38.63
2018-03-26T14:51:46.659Z,41.47
2018-03-26T14:54:27.262Z,37.80
2018-03-26T14:59:29.107Z,43.47
2018-03-26T15:01:56.937Z,44.30
2018-03-26T15:04:24.487Z,44.65
2018-03-26T15:06:52.052Z,45.70
2018-03-26T15:09:19.587Z,44.00
2018-03-26T15:11:47.119Z,45.30
2018-03-26T15:14:18.993Z,45.10
2018-03-26T15:16:46.528Z,41.67
2018-03-26T15:19:31.096Z,40.25
2018-03-26T15:30:23.746Z,41.67
2018-03-26T15:32:51.351Z,40.03
2018-03-26T15:35:18.970Z,39.30
2018-03-26T15:37:46.544Z,40.85
2018-03-26T15:40:16.355Z,39.47
2018-03-26T15:42:43.916Z,38.03
2018-03-26T15:45:12.611Z,39.00
2018-03-26T15:47:40.911Z,38.30
2018-03-26T15:50:08.453Z,39.55
2018-03-26T15:52:36.508Z,36.53
2018-03-26T15:55:04.100Z,41.00
2018-03-26T15:57:31.639Z,39.17
2018-03-26T15:59:59.215Z,37.63
2018-03-26T16:02:32.312Z,37.47
2018-03-26T16:04:59.896Z,36.80
2018-03-26T16:07:27.460Z,36.63
2018-03-26T16:09:55.051Z,34.10
2018-03-26T16:12:22.656Z,34.95
2018-03-26T16:14:50.305Z,34.30
2018-03-26T16:17:19.659Z,33.43
2018-03-26T16:19:48.619Z,35.90
2018-03-26T16:22:17.887Z,36.67
2018-03-26T16:24:45.472Z,38.57
2018-03-26T16:27:14.952Z,40.90
2018-03-26T16:29:42.514Z,44.60
2018-03-26T16:32:10.332Z,46.20
2018-03-26T16:34:38.037Z,47.20
2018-03-26T16:37:06.314Z,47.20
2018-03-26T16:39:37.574Z,47.80
2018-03-26T16:42:18.051Z,46.85
2018-03-26T16:44:46.628Z,47.47
2018-03-26T16:47:25.695Z,47.22
2018-03-26T16:52:21.340Z,48.80
2018-03-26T16:54:50.292Z,48.83
2018-03-26T16:57:17.878Z,49.00
2018-03-26T16:59:45.396Z,47.60
2018-03-26T17:02:25.218Z,50.05
2018-03-26T17:13:09.146Z,49.83
2018-03-26T17:15:36.836Z,49.17
2018-03-26T17:18:04.474Z,49.07
2018-03-26T17:20:32.084Z,51.83
2018-03-26T17:22:59.754Z,52.30
2018-03-26T17:25:27.636Z,49.27
2018-03-26T17:27:55.206Z,51.47
2018-03-26T17:30:22.883Z,50.77
2018-03-26T17:32:50.656Z,48.10
2018-03-26T17:35:18.287Z,49.17
2018-03-26T17:37:45.829Z,46.97
2018-03-26T17:40:24.468Z,52.00
2018-03-26T17:47:43.868Z,38.30
2018-03-26T17:50:11.411Z,35.77
2018-03-26T17:52:38.992Z,31.33
2018-03-26T17:55:07.418Z,31.13
2018-03-26T17:57:34.998Z,31.03
2018-03-26T18:00:02.837Z,29.67
2018-03-26T18:02:30.517Z,34.37
2018-03-26T18:04:58.284Z,30.63
2018-03-26T18:07:25.893Z,31.15
2018-03-26T18:09:53.680Z,39.97
2018-03-26T18:12:21.280Z,36.37
2018-03-26T18:14:49.588Z,33.70
2018-03-26T18:17:17.198Z,37.50
2018-03-26T18:19:44.832Z,36.73
2018-03-26T18:22:12.372Z,33.93
2018-03-26T18:24:40.381Z,34.53
2018-03-26T18:27:08.125Z,35.83
2018-03-26T18:29:35.700Z,33.57
2018-03-26T18:32:03.364Z,34.40
2018-03-26T18:34:31.129Z,34.30
2018-03-26T18:36:58.702Z,35.43
2018-03-26T18:39:26.562Z,34.80
2018-03-26T18:41:54.151Z,35.97
2018-03-26T18:44:21.928Z,37.10
2018-03-26T18:46:49.576Z,37.50
2018-03-26T18:49:17.459Z,38.33
2018-03-26T18:51:45.089Z,37.67
2018-03-26T18:54:14.064Z,42.70
2018-03-26T18:56:41.672Z,41.50
2018-03-26T18:59:09.213Z,39.87
2018-03-26T19:01:37.293Z,38.30
2018-03-26T19:04:05.624Z,36.00
2018-03-26T19:06:33.169Z,34.75
2018-03-26T19:09:00.782Z,35.80
2018-03-26T19:11:28.729Z,35.45
2018-03-26T19:13:56.290Z,36.03
2018-03-26T19:16:23.908Z,36.17
2018-03-26T19:18:51.452Z,34.97
2018-03-26T19:21:18.995Z,36.57
2018-03-26T19:23:46.624Z,35.77
2018-03-26T19:26:16.308Z,36.63
2018-03-26T19:28:43.909Z,37.97
2018-03-26T19:31:11.472Z,39.23
2018-03-26T19:33:39.040Z,41.00
2018-03-26T19:36:06.646Z,42.70
2018-03-26T19:38:35.142Z,41.30
2018-03-26T19:41:02.701Z,43.08
2018-03-26T19:43:31.025Z,43.72
2018-03-26T19:45:58.793Z,46.00
2018-03-26T19:48:26.348Z,49.33
2018-03-26T19:50:55.968Z,49.30
2018-03-26T19:53:26.741Z,47.30
2018-03-26T19:55:54.447Z,51.20
2018-03-26T19:58:24.649Z,49.27
2018-03-26T20:00:54.191Z,49.83
2018-03-26T20:03:21.804Z,54.02
2018-03-26T20:05:49.368Z,49.33
2018-03-26T20:08:18.179Z,51.80
2018-03-26T20:10:45.736Z,53.80
2018-03-26T20:13:14.777Z,51.42
2018-03-26T20:15:43.223Z,52.20
2018-03-26T20:18:10.836Z,52.57
2018-03-26T20:20:38.372Z,52.17
2018-03-26T20:23:06.889Z,53.83
2018-03-26T20:25:34.528Z,53.42
2018-03-26T20:28:02.114Z,54.67
2018-03-26T20:30:29.960Z,56.07
2018-03-26T20:32:57.553Z,57.70
2018-03-26T20:35:25.186Z,55.10
2018-03-26T20:37:53.578Z,53.70
2018-03-26T20:40:21.400Z,56.30
2018-03-26T20:42:49.741Z,56.83
2018-03-26T20:45:17.431Z,57.13
2018-03-26T20:47:45.176Z,57.87
2018-03-26T20:50:13.694Z,60.00
2018-03-26T20:52:42.753Z,57.90
2018-03-26T20:55:11.073Z,61.40
2018-03-26T20:57:39.493Z,57.33
2018-03-26T21:00:07.191Z,57.97
2018-03-26T21:02:34.741Z,57.50
2018-03-26T21:05:02.316Z,60.30
2018-03-26T21:07:29.955Z,59.03
2018-03-26T21:09:57.514Z,61.47
2018-03-26T21:12:25.077Z,57.03
2018-03-26T21:14:53.760Z,55.37
2018-03-26T21:17:21.358Z,58.90
2018-03-26T21:19:48.984Z,57.67
2018-03-26T21:22:16.608Z,57.80
2018-03-26T21:24:44.182Z,59.90
2018-03-26T21:27:11.800Z,59.30
2018-03-26T21:29:40.241Z,59.17
2018-03-26T21:32:07.972Z,58.50
2018-03-26T21:34:35.519Z,56.60
2018-03-26T21:37:03.643Z,57.90
2018-03-26T21:39:31.189Z,58.27
2018-03-26T21:41:58.826Z,57.93
2018-03-26T21:44:26.404Z,55.80
2018-03-26T21:46:53.951Z,60.07
2018-03-26T21:49:21.491Z,59.70
2018-03-26T21:51:49.108Z,58.07
2018-03-26T21:54:17.121Z,60.33
2018-03-26T21:56:45.441Z,59.60
2018-03-26T21:59:25.609Z,63.85
2018-03-26T22:10:33.216Z,60.97
2018-03-26T22:13:00.823Z,63.70
2018-03-26T22:15:28.360Z,61.70
2018-03-26T22:17:56.360Z,64.73
2018-03-26T22:20:23.931Z,61.17
2018-03-26T22:22:51.552Z,63.40
2018-03-26T22:25:19.135Z,59.58
2018-03-26T22:27:47.611Z,60.37
2018-03-26T22:30:17.530Z,59.08
2018-03-26T22:32:45.175Z,61.90
2018-03-26T22:35:14.403Z,60.77
2018-03-26T22:37:41.986Z,60.60
2018-03-26T22:40:10.562Z,60.70
2018-03-26T22:42:38.893Z,60.67
2018-03-26T22:45:06.439Z,58.80
2018-03-26T22:47:34.043Z,60.83
2018-03-26T22:50:01.596Z,59.20
2018-03-26T22:52:29.140Z,58.50
2018-03-26T22:54:57.098Z,61.30
2018-03-26T22:57:24.664Z,60.93
2018-03-26T22:59:52.212Z,60.50
2018-03-26T23:02:20.122Z,63.70
2018-03-26T23:04:47.669Z,62.73
2018-03-26T23:07:17.268Z,59.75
2018-03-26T23:09:44.878Z,62.13
2018-03-26T23:12:12.460Z,64.60
2018-03-26T23:14:39.976Z,61.57
2018-03-26T23:17:07.540Z,62.57
2018-03-26T23:19:35.100Z,65.27
2018-03-26T23:22:02.649Z,70.17
2018-03-26T23:24:30.628Z,70.07
2018-03-26T23:26:58.173Z,67.53
2018-03-26T23:29:25.712Z,67.47
2018-03-26T23:31:53.304Z,65.47
2018-03-26T23:34:20.844Z,69.13
2018-03-26T23:36:48.384Z,67.37
2018-03-26T23:39:16.628Z,65.05
2018-03-26T23:41:44.936Z,69.17
2018-03-26T23:44:12.555Z,68.22
2018-03-26T23:46:41.217Z,64.90
2018-03-26T23:49:08.820Z,65.23
2018-03-26T23:51:42.149Z,67.23
2018-03-26T23:54:09.751Z,67.10
2018-03-26T23:56:37.460Z,66.75
2018-03-26T23:59:05.019Z,62.20
